sensor_id;sensor_type;location;lat;lon;timestamp;P1;durP1;ratioP1;P2;durP2;ratioP2
32216;SDS011;67098;51.140;4.088;2023-05-10T00:02:09;15.63;;;8.52;;
32216;SDS011;67098;51.140;4.088;2023-05-10T00:04:35;17.58;;;9.05;;
32216;SDS011;67098;51.140;4.088;2023-05-10T00:07:01;20.75;;;9.93;;
32216;SDS011;67098;51.140;4.088;2023-05-10T00:09:26;26.75;;;9.65;;
32216;SDS011;67098;51.140;4.088;2023-05-10T00:11:52;19.08;;;9.45;;
32216;SDS011;67098;51.140;4.088;2023-05-10T00:14:18;29.08;;;10.20;;
32216;SDS011;67098;51.140;4.088;2023-05-10T00:16:44;20.25;;;10.05;;
32216;SDS011;67098;51.140;4.088;2023-05-10T00:19:09;23.38;;;10.48;;
32216;SDS011;67098;51.140;4.088;2023-05-10T00:21:35;24.63;;;10.93;;
32216;SDS011;67098;51.140;4.088;2023-05-10T00:24:01;23.60;;;11.10;;
32216;SDS011;67098;51.140;4.088;2023-05-10T00:26:27;25.77;;;11.10;;
32216;SDS011;67098;51.140;4.088;2023-05-10T00:28:53;28.80;;;12.45;;
32216;SDS011;67098;51.140;4.088;2023-05-10T00:31:18;22.02;;;10.80;;
32216;SDS011;67098;51.140;4.088;2023-05-10T00:33:44;28.23;;;12.93;;
32216;SDS011;67098;51.140;4.088;2023-05-10T00:36:10;28.00;;;13.20;;
32216;SDS011;67098;51.140;4.088;2023-05-10T00:38:36;27.15;;;13.40;;
32216;SDS011;67098;51.140;4.088;2023-05-10T00:41:01;24.90;;;13.30;;
32216;SDS011;67098;51.140;4.088;2023-05-10T00:43:28;26.80;;;14.23;;
32216;SDS011;67098;51.140;4.088;2023-05-10T00:45:54;26.48;;;14.05;;
32216;SDS011;67098;51.140;4.088;2023-05-10T00:48:20;29.17;;;14.07;;
32216;SDS011;67098;51.140;4.088;2023-05-10T00:50:46;31.23;;;14.50;;
32216;SDS011;67098;51.140;4.088;2023-05-10T00:53:13;27.67;;;14.20;;
32216;SDS011;67098;51.140;4.088;2023-05-10T00:55:40;31.85;;;14.88;;
32216;SDS011;67098;51.140;4.088;2023-05-10T00:58:05;30.15;;;15.40;;
32216;SDS011;67098;51.140;4.088;2023-05-10T01:00:32;33.25;;;16.40;;
32216;SDS011;67098;51.140;4.088;2023-05-10T01:02:58;33.65;;;16.80;;
32216;SDS011;67098;51.140;4.088;2023-05-10T01:05:24;36.85;;;16.55;;
32216;SDS011;67098;51.140;4.088;2023-05-10T01:07:52;32.38;;;16.13;;
32216;SDS011;67098;51.140;4.088;2023-05-10T01:10:17;32.33;;;16.33;;
32216;SDS011;67098;51.140;4.088;2023-05-10T01:12:44;26.92;;;15.20;;
32216;SDS011;67098;51.140;4.088;2023-05-10T01:15:11;33.88;;;16.52;;
32216;SDS011;67098;51.140;4.088;2023-05-10T01:17:38;33.80;;;16.48;;
32216;SDS011;67098;51.140;4.088;2023-05-10T01:20:07;31.85;;;17.33;;
32216;SDS011;67098;51.140;4.088;2023-05-10T01:34:19;31.75;;;17.20;;
32216;SDS011;67098;51.140;4.088;2023-05-10T01:36:58;32.25;;;16.80;;
32216;SDS011;67098;51.140;4.088;2023-05-10T01:42:09;33.90;;;18.02;;
32216;SDS011;67098;51.140;4.088;2023-05-10T01:47:09;38.70;;;18.15;;
32216;SDS011;67098;51.140;4.088;2023-05-10T01:49:49;43.20;;;20.88;;
32216;SDS011;67098;51.140;4.088;2023-05-10T01:52:18;40.55;;;20.17;;
32216;SDS011;67098;51.140;4.088;2023-05-10T01:54:54;41.28;;;21.60;;
32216;SDS011;67098;51.140;4.088;2023-05-10T01:57:25;39.85;;;21.13;;
32216;SDS011;67098;51.140;4.088;2023-05-10T01:59:56;43.97;;;23.30;;
32216;SDS011;67098;51.140;4.088;2023-05-10T02:02:24;49.00;;;22.80;;
32216;SDS011;67098;51.140;4.088;2023-05-10T02:04:52;45.35;;;22.60;;
32216;SDS011;67098;51.140;4.088;2023-05-10T02:07:20;46.00;;;24.15;;
32216;SDS011;67098;51.140;4.088;2023-05-10T02:09:48;46.63;;;23.35;;
32216;SDS011;67098;51.140;4.088;2023-05-10T02:12:15;45.30;;;23.27;;
32216;SDS011;67098;51.140;4.088;2023-05-10T02:14:43;46.95;;;23.00;;
32216;SDS011;67098;51.140;4.088;2023-05-10T02:17:10;41.42;;;21.98;;
32216;SDS011;67098;51.140;4.088;2023-05-10T02:19:37;47.38;;;23.05;;
32216;SDS011;67098;51.140;4.088;2023-05-10T02:22:05;44.45;;;23.73;;
32216;SDS011;67098;51.140;4.088;2023-05-10T02:24:33;44.75;;;23.23;;
32216;SDS011;67098;51.140;4.088;2023-05-10T02:27:01;44.88;;;23.85;;
32216;SDS011;67098;51.140;4.088;2023-05-10T02:29:28;47.00;;;23.67;;
32216;SDS011;67098;51.140;4.088;2023-05-10T02:31:56;52.78;;;25.33;;
32216;SDS011;67098;51.140;4.088;2023-05-10T02:34:25;44.60;;;23.75;;
32216;SDS011;67098;51.140;4.088;2023-05-10T02:36:52;51.15;;;25.80;;
32216;SDS011;67098;51.140;4.088;2023-05-10T02:39:19;47.38;;;25.05;;
32216;SDS011;67098;51.140;4.088;2023-05-10T02:41:46;51.17;;;26.08;;
32216;SDS011;67098;51.140;4.088;2023-05-10T02:44:14;55.55;;;28.05;;
32216;SDS011;67098;51.140;4.088;2023-05-10T02:46:42;47.92;;;25.73;;
32216;SDS011;67098;51.140;4.088;2023-05-10T02:49:08;48.97;;;27.00;;
32216;SDS011;67098;51.140;4.088;2023-05-10T02:51:35;48.50;;;25.60;;
32216;SDS011;67098;51.140;4.088;2023-05-10T02:54:27;45.80;;;25.77;;
32216;SDS011;67098;51.140;4.088;2023-05-10T02:56:56;50.60;;;26.08;;
32216;SDS011;67098;51.140;4.088;2023-05-10T02:59:23;55.22;;;26.25;;
32216;SDS011;67098;51.140;4.088;2023-05-10T03:01:48;53.85;;;27.45;;
32216;SDS011;67098;51.140;4.088;2023-05-10T03:04:14;60.00;;;30.02;;
32216;SDS011;67098;51.140;4.088;2023-05-10T03:06:40;57.72;;;28.95;;
32216;SDS011;67098;51.140;4.088;2023-05-10T03:09:06;57.05;;;28.30;;
32216;SDS011;67098;51.140;4.088;2023-05-10T03:17:20;60.22;;;28.15;;
32216;SDS011;67098;51.140;4.088;2023-05-10T03:19:57;72.63;;;32.45;;
32216;SDS011;67098;51.140;4.088;2023-05-10T03:22:31;75.25;;;32.65;;
32216;SDS011;67098;51.140;4.088;2023-05-10T03:25:04;84.93;;;34.97;;
32216;SDS011;67098;51.140;4.088;2023-05-10T03:27:31;74.30;;;34.83;;
32216;SDS011;67098;51.140;4.088;2023-05-10T03:29:57;77.57;;;35.65;;
32216;SDS011;67098;51.140;4.088;2023-05-10T03:32:23;87.10;;;39.70;;
32216;SDS011;67098;51.140;4.088;2023-05-10T03:34:49;88.60;;;40.75;;
32216;SDS011;67098;51.140;4.088;2023-05-10T03:37:15;96.72;;;41.42;;
32216;SDS011;67098;51.140;4.088;2023-05-10T03:39:40;96.95;;;41.92;;
32216;SDS011;67098;51.140;4.088;2023-05-10T03:42:06;90.97;;;41.33;;
32216;SDS011;67098;51.140;4.088;2023-05-10T03:44:32;92.82;;;41.15;;
32216;SDS011;67098;51.140;4.088;2023-05-10T03:46:58;93.75;;;39.92;;
32216;SDS011;67098;51.140;4.088;2023-05-10T03:49:24;87.07;;;37.58;;
32216;SDS011;67098;51.140;4.088;2023-05-10T03:51:50;94.47;;;39.05;;
32216;SDS011;67098;51.140;4.088;2023-05-10T03:54:15;87.57;;;37.63;;
32216;SDS011;67098;51.140;4.088;2023-05-10T03:56:41;85.65;;;39.33;;
32216;SDS011;67098;51.140;4.088;2023-05-10T03:59:07;92.43;;;39.35;;
32216;SDS011;67098;51.140;4.088;2023-05-10T04:01:34;92.65;;;40.70;;
32216;SDS011;67098;51.140;4.088;2023-05-10T04:04:00;102.47;;;45.88;;
32216;SDS011;67098;51.140;4.088;2023-05-10T04:06:25;114.45;;;49.05;;
32216;SDS011;67098;51.140;4.088;2023-05-10T04:08:51;122.78;;;54.80;;
32216;SDS011;67098;51.140;4.088;2023-05-10T04:11:17;127.38;;;59.42;;
32216;SDS011;67098;51.140;4.088;2023-05-10T04:13:42;141.75;;;64.75;;
32216;SDS011;67098;51.140;4.088;2023-05-10T04:16:08;126.25;;;59.33;;
32216;SDS011;67098;51.140;4.088;2023-05-10T04:18:34;135.57;;;60.50;;
32216;SDS011;67098;51.140;4.088;2023-05-10T04:21:00;106.53;;;52.35;;
32216;SDS011;67098;51.140;4.088;2023-05-10T04:23:26;114.63;;;52.85;;
32216;SDS011;67098;51.140;4.088;2023-05-10T04:25:52;106.85;;;49.33;;
32216;SDS011;67098;51.140;4.088;2023-05-10T04:28:23;106.47;;;47.35;;
32216;SDS011;67098;51.140;4.088;2023-05-10T04:30:49;100.80;;;45.05;;
32216;SDS011;67098;51.140;4.088;2023-05-10T04:33:15;95.28;;;44.20;;
32216;SDS011;67098;51.140;4.088;2023-05-10T04:35:40;87.43;;;41.80;;
32216;SDS011;67098;51.140;4.088;2023-05-10T04:38:06;85.60;;;40.63;;
32216;SDS011;67098;51.140;4.088;2023-05-10T04:40:32;76.72;;;38.67;;
32216;SDS011;67098;51.140;4.088;2023-05-10T04:42:58;81.70;;;39.42;;
32216;SDS011;67098;51.140;4.088;2023-05-10T04:45:23;75.55;;;36.42;;
32216;SDS011;67098;51.140;4.088;2023-05-10T04:47:49;80.45;;;39.55;;
32216;SDS011;67098;51.140;4.088;2023-05-10T04:50:14;77.40;;;38.33;;
32216;SDS011;67098;51.140;4.088;2023-05-10T04:52:40;78.28;;;38.75;;
32216;SDS011;67098;51.140;4.088;2023-05-10T04:55:06;78.10;;;38.55;;
32216;SDS011;67098;51.140;4.088;2023-05-10T04:57:34;81.65;;;39.97;;
32216;SDS011;67098;51.140;4.088;2023-05-10T05:00:00;86.70;;;42.63;;
32216;SDS011;67098;51.140;4.088;2023-05-10T05:02:26;86.57;;;41.45;;
32216;SDS011;67098;51.140;4.088;2023-05-10T05:04:51;95.70;;;44.38;;
32216;SDS011;67098;51.140;4.088;2023-05-10T05:07:17;89.93;;;41.35;;
32216;SDS011;67098;51.140;4.088;2023-05-10T05:09:42;94.10;;;43.70;;
32216;SDS011;67098;51.140;4.088;2023-05-10T05:12:08;93.88;;;44.10;;
32216;SDS011;67098;51.140;4.088;2023-05-10T05:14:38;88.97;;;43.22;;
32216;SDS011;67098;51.140;4.088;2023-05-10T05:17:05;84.65;;;42.00;;
32216;SDS011;67098;51.140;4.088;2023-05-10T05:19:31;81.80;;;41.60;;
32216;SDS011;67098;51.140;4.088;2023-05-10T05:21:57;81.85;;;40.90;;
32216;SDS011;67098;51.140;4.088;2023-05-10T05:24:22;77.63;;;38.83;;
32216;SDS011;67098;51.140;4.088;2023-05-10T05:26:48;76.72;;;38.70;;
32216;SDS011;67098;51.140;4.088;2023-05-10T05:29:14;68.53;;;35.90;;
32216;SDS011;67098;51.140;4.088;2023-05-10T05:31:39;65.47;;;34.22;;
32216;SDS011;67098;51.140;4.088;2023-05-10T05:34:05;71.45;;;33.90;;
32216;SDS011;67098;51.140;4.088;2023-05-10T05:36:31;61.13;;;32.20;;
32216;SDS011;67098;51.140;4.088;2023-05-10T05:38:56;56.50;;;30.85;;
32216;SDS011;67098;51.140;4.088;2023-05-10T05:41:22;55.75;;;29.92;;
32216;SDS011;67098;51.140;4.088;2023-05-10T05:43:49;61.70;;;30.15;;
32216;SDS011;67098;51.140;4.088;2023-05-10T05:46:15;51.65;;;28.10;;
32216;SDS011;67098;51.140;4.088;2023-05-10T05:48:41;55.20;;;29.95;;
32216;SDS011;67098;51.140;4.088;2023-05-10T05:51:06;51.83;;;29.45;;
32216;SDS011;67098;51.140;4.088;2023-05-10T05:53:32;46.67;;;27.73;;
32216;SDS011;67098;51.140;4.088;2023-05-10T05:55:58;50.55;;;28.80;;
32216;SDS011;67098;51.140;4.088;2023-05-10T05:58:24;51.10;;;28.92;;
32216;SDS011;67098;51.140;4.088;2023-05-10T06:00:51;54.85;;;29.95;;
32216;SDS011;67098;51.140;4.088;2023-05-10T06:03:17;52.42;;;29.52;;
32216;SDS011;67098;51.140;4.088;2023-05-10T06:05:43;56.53;;;30.17;;
32216;SDS011;67098;51.140;4.088;2023-05-10T06:08:09;52.08;;;28.98;;
32216;SDS011;67098;51.140;4.088;2023-05-10T06:10:35;49.97;;;28.88;;
32216;SDS011;67098;51.140;4.088;2023-05-10T06:13:01;60.97;;;30.45;;
32216;SDS011;67098;51.140;4.088;2023-05-10T06:15:27;57.30;;;32.53;;
32216;SDS011;67098;51.140;4.088;2023-05-10T06:17:53;50.03;;;30.38;;
32216;SDS011;67098;51.140;4.088;2023-05-10T06:20:19;44.78;;;26.63;;
32216;SDS011;67098;51.140;4.088;2023-05-10T06:22:44;46.42;;;26.33;;
32216;SDS011;67098;51.140;4.088;2023-05-10T06:25:10;43.67;;;25.13;;
32216;SDS011;67098;51.140;4.088;2023-05-10T06:27:36;42.95;;;23.83;;
32216;SDS011;67098;51.140;4.088;2023-05-10T06:30:02;41.55;;;23.55;;
32216;SDS011;67098;51.140;4.088;2023-05-10T06:32:28;43.40;;;23.50;;
32216;SDS011;67098;51.140;4.088;2023-05-10T06:34:54;40.45;;;22.45;;
32216;SDS011;67098;51.140;4.088;2023-05-10T06:37:20;42.50;;;23.70;;
32216;SDS011;67098;51.140;4.088;2023-05-10T06:39:45;39.13;;;22.50;;
32216;SDS011;67098;51.140;4.088;2023-05-10T06:42:11;37.13;;;22.10;;
32216;SDS011;67098;51.140;4.088;2023-05-10T06:44:37;37.05;;;21.30;;
32216;SDS011;67098;51.140;4.088;2023-05-10T06:47:02;35.10;;;22.10;;
32216;SDS011;67098;51.140;4.088;2023-05-10T06:49:28;37.22;;;20.77;;
32216;SDS011;67098;51.140;4.088;2023-05-10T06:51:55;35.58;;;20.05;;
32216;SDS011;67098;51.140;4.088;2023-05-10T06:54:21;38.58;;;20.25;;
32216;SDS011;67098;51.140;4.088;2023-05-10T06:56:48;32.50;;;20.15;;
32216;SDS011;67098;51.140;4.088;2023-05-10T06:59:13;30.42;;;19.40;;
32216;SDS011;67098;51.140;4.088;2023-05-10T07:01:41;37.63;;;19.30;;
32216;SDS011;67098;51.140;4.088;2023-05-10T07:04:08;34.17;;;20.10;;
32216;SDS011;67098;51.140;4.088;2023-05-10T07:06:34;32.50;;;19.45;;
32216;SDS011;67098;51.140;4.088;2023-05-10T07:09:00;32.90;;;19.45;;
32216;SDS011;67098;51.140;4.088;2023-05-10T07:11:26;30.95;;;19.13;;
32216;SDS011;67098;51.140;4.088;2023-05-10T07:13:51;29.75;;;18.17;;
32216;SDS011;67098;51.140;4.088;2023-05-10T07:16:17;25.33;;;16.88;;
32216;SDS011;67098;51.140;4.088;2023-05-10T07:18:43;27.17;;;16.70;;
32216;SDS011;67098;51.140;4.088;2023-05-10T07:21:09;28.90;;;15.23;;
32216;SDS011;67098;51.140;4.088;2023-05-10T07:23:34;27.30;;;15.80;;
32216;SDS011;67098;51.140;4.088;2023-05-10T07:26:00;27.05;;;16.23;;
32216;SDS011;67098;51.140;4.088;2023-05-10T07:28:27;27.65;;;16.73;;
32216;SDS011;67098;51.140;4.088;2023-05-10T07:30:52;23.60;;;15.77;;
32216;SDS011;67098;51.140;4.088;2023-05-10T07:33:18;23.70;;;14.68;;
32216;SDS011;67098;51.140;4.088;2023-05-10T07:35:44;20.85;;;13.77;;
32216;SDS011;67098;51.140;4.088;2023-05-10T07:38:10;18.60;;;11.20;;
32216;SDS011;67098;51.140;4.088;2023-05-10T07:40:38;17.23;;;10.90;;
32216;SDS011;67098;51.140;4.088;2023-05-10T07:43:04;16.65;;;10.60;;
32216;SDS011;67098;51.140;4.088;2023-05-10T07:45:30;17.10;;;10.82;;
32216;SDS011;67098;51.140;4.088;2023-05-10T07:47:56;19.90;;;10.23;;
32216;SDS011;67098;51.140;4.088;2023-05-10T07:50:21;27.67;;;15.50;;
32216;SDS011;67098;51.140;4.088;2023-05-10T07:52:47;28.20;;;14.73;;
32216;SDS011;67098;51.140;4.088;2023-05-10T07:55:13;18.55;;;11.30;;
32216;SDS011;67098;51.140;4.088;2023-05-10T07:57:38;20.60;;;11.93;;
32216;SDS011;67098;51.140;4.088;2023-05-10T08:00:05;24.83;;;13.68;;
32216;SDS011;67098;51.140;4.088;2023-05-10T08:02:32;22.95;;;13.32;;
32216;SDS011;67098;51.140;4.088;2023-05-10T08:04:59;20.67;;;13.18;;
32216;SDS011;67098;51.140;4.088;2023-05-10T08:07:24;18.25;;;11.07;;
32216;SDS011;67098;51.140;4.088;2023-05-10T08:09:50;23.75;;;14.15;;
32216;SDS011;67098;51.140;4.088;2023-05-10T08:12:16;56.25;;;33.45;;
32216;SDS011;67098;51.140;4.088;2023-05-10T08:14:41;58.38;;;34.58;;
32216;SDS011;67098;51.140;4.088;2023-05-10T08:17:07;34.05;;;19.27;;
32216;SDS011;67098;51.140;4.088;2023-05-10T08:19:32;15.55;;;8.75;;
32216;SDS011;67098;51.140;4.088;2023-05-10T08:21:58;9.90;;;6.43;;
32216;SDS011;67098;51.140;4.088;2023-05-10T08:24:24;7.85;;;4.95;;
32216;SDS011;67098;51.140;4.088;2023-05-10T08:26:50;7.22;;;4.57;;
32216;SDS011;67098;51.140;4.088;2023-05-10T08:29:16;7.57;;;5.35;;
32216;SDS011;67098;51.140;4.088;2023-05-10T08:31:41;7.18;;;4.65;;
32216;SDS011;67098;51.140;4.088;2023-05-10T08:34:07;7.82;;;6.35;;
32216;SDS011;67098;51.140;4.088;2023-05-10T08:36:33;8.00;;;6.20;;
32216;SDS011;67098;51.140;4.088;2023-05-10T08:38:58;7.38;;;4.97;;
32216;SDS011;67098;51.140;4.088;2023-05-10T08:41:24;6.60;;;4.90;;
32216;SDS011;67098;51.140;4.088;2023-05-10T08:43:53;8.38;;;5.25;;
32216;SDS011;67098;51.140;4.088;2023-05-10T08:46:19;7.30;;;5.07;;
32216;SDS011;67098;51.140;4.088;2023-05-10T08:48:47;6.10;;;4.97;;
32216;SDS011;67098;51.140;4.088;2023-05-10T08:51:16;7.43;;;5.78;;
32216;SDS011;67098;51.140;4.088;2023-05-10T08:53:45;12.70;;;9.07;;
32216;SDS011;67098;51.140;4.088;2023-05-10T08:56:10;19.92;;;13.20;;
32216;SDS011;67098;51.140;4.088;2023-05-10T08:58:37;33.15;;;18.17;;
32216;SDS011;67098;51.140;4.088;2023-05-10T09:01:03;35.45;;;18.65;;
32216;SDS011;67098;51.140;4.088;2023-05-10T09:03:30;32.60;;;18.88;;
32216;SDS011;67098;51.140;4.088;2023-05-10T09:05:56;37.65;;;19.02;;
32216;SDS011;67098;51.140;4.088;2023-05-10T09:08:25;38.63;;;19.35;;
32216;SDS011;67098;51.140;4.088;2023-05-10T09:10:51;37.83;;;18.92;;
32216;SDS011;67098;51.140;4.088;2023-05-10T09:13:18;31.02;;;18.27;;
32216;SDS011;67098;51.140;4.088;2023-05-10T09:15:46;33.10;;;18.13;;
32216;SDS011;67098;51.140;4.088;2023-05-10T09:18:12;31.00;;;16.92;;
32216;SDS011;67098;51.140;4.088;2023-05-10T09:20:38;31.10;;;17.58;;
32216;SDS011;67098;51.140;4.088;2023-05-10T09:23:04;29.55;;;17.20;;
32216;SDS011;67098;51.140;4.088;2023-05-10T09:25:30;29.42;;;16.73;;
32216;SDS011;67098;51.140;4.088;2023-05-10T09:27:58;36.80;;;18.25;;
32216;SDS011;67098;51.140;4.088;2023-05-10T09:30:28;29.17;;;16.45;;
32216;SDS011;67098;51.140;4.088;2023-05-10T09:32:55;31.77;;;17.27;;
32216;SDS011;67098;51.140;4.088;2023-05-10T09:35:26;33.95;;;16.23;;
32216;SDS011;67098;51.140;4.088;2023-05-10T09:37:54;26.63;;;14.20;;
32216;SDS011;67098;51.140;4.088;2023-05-10T09:40:21;16.92;;;11.27;;
32216;SDS011;67098;51.140;4.088;2023-05-10T09:42:56;17.60;;;11.00;;
32216;SDS011;67098;51.140;4.088;2023-05-10T09:45:33;20.85;;;13.13;;
32216;SDS011;67098;51.140;4.088;2023-05-10T09:48:01;24.13;;;13.90;;
32216;SDS011;67098;51.140;4.088;2023-05-10T09:50:28;28.58;;;14.20;;
32216;SDS011;67098;51.140;4.088;2023-05-10T09:55:24;24.15;;;13.55;;
32216;SDS011;67098;51.140;4.088;2023-05-10T09:58:00;18.88;;;11.73;;
32216;SDS011;67098;51.140;4.088;2023-05-10T10:00:28;21.08;;;12.77;;
32216;SDS011;67098;51.140;4.088;2023-05-10T10:03:00;18.42;;;11.13;;
32216;SDS011;67098;51.140;4.088;2023-05-10T10:05:30;16.45;;;10.88;;
32216;SDS011;67098;51.140;4.088;2023-05-10T10:08:02;23.23;;;13.70;;
32216;SDS011;67098;51.140;4.088;2023-05-10T10:10:29;24.75;;;12.38;;
32216;SDS011;67098;51.140;4.088;2023-05-10T10:12:57;20.73;;;12.10;;
32216;SDS011;67098;51.140;4.088;2023-05-10T10:15:24;22.00;;;12.40;;
32216;SDS011;67098;51.140;4.088;2023-05-10T10:17:50;24.13;;;12.70;;
32216;SDS011;67098;51.140;4.088;2023-05-10T10:20:17;22.27;;;11.70;;
32216;SDS011;67098;51.140;4.088;2023-05-10T10:22:45;18.27;;;10.88;;
32216;SDS011;67098;51.140;4.088;2023-05-10T10:25:11;20.17;;;11.40;;
32216;SDS011;67098;51.140;4.088;2023-05-10T10:30:25;15.50;;;9.32;;
32216;SDS011;67098;51.140;4.088;2023-05-10T10:35:23;17.60;;;8.23;;
32216;SDS011;67098;51.140;4.088;2023-05-10T10:37:50;14.82;;;8.80;;
32216;SDS011;67098;51.140;4.088;2023-05-10T10:40:28;14.30;;;9.73;;
32216;SDS011;67098;51.140;4.088;2023-05-10T10:42:56;16.95;;;10.85;;
32216;SDS011;67098;51.140;4.088;2023-05-10T10:45:23;13.88;;;9.50;;
32216;SDS011;67098;51.140;4.088;2023-05-10T10:50:47;16.55;;;10.07;;
32216;SDS011;67098;51.140;4.088;2023-05-10T10:53:22;18.23;;;11.30;;
32216;SDS011;67098;51.140;4.088;2023-05-10T10:55:51;20.35;;;10.68;;
32216;SDS011;67098;51.140;4.088;2023-05-10T10:58:31;17.13;;;10.60;;
32216;SDS011;67098;51.140;4.088;2023-05-10T11:01:09;18.98;;;10.20;;
32216;SDS011;67098;51.140;4.088;2023-05-10T11:03:40;14.50;;;9.27;;
32216;SDS011;67098;51.140;4.088;2023-05-10T11:06:28;16.52;;;10.40;;
32216;SDS011;67098;51.140;4.088;2023-05-10T11:08:58;16.95;;;9.90;;
32216;SDS011;67098;51.140;4.088;2023-05-10T11:11:30;16.15;;;10.38;;
32216;SDS011;67098;51.140;4.088;2023-05-10T11:13:56;15.30;;;9.60;;
32216;SDS011;67098;51.140;4.088;2023-05-10T11:16:28;16.40;;;10.05;;
32216;SDS011;67098;51.140;4.088;2023-05-10T11:19:09;15.35;;;9.38;;
32216;SDS011;67098;51.140;4.088;2023-05-10T11:21:49;15.48;;;8.35;;
32216;SDS011;67098;51.140;4.088;2023-05-10T11:24:20;11.50;;;8.18;;
32216;SDS011;67098;51.140;4.088;2023-05-10T11:26:49;13.95;;;8.07;;
32216;SDS011;67098;51.140;4.088;2023-05-10T11:29:16;12.90;;;8.55;;
32216;SDS011;67098;51.140;4.088;2023-05-10T11:31:45;13.77;;;7.22;;
32216;SDS011;67098;51.140;4.088;2023-05-10T11:34:13;11.20;;;8.38;;
32216;SDS011;67098;51.140;4.088;2023-05-10T11:36:55;12.20;;;8.02;;
32216;SDS011;67098;51.140;4.088;2023-05-10T11:39:24;17.80;;;8.55;;
32216;SDS011;67098;51.140;4.088;2023-05-10T11:41:55;11.68;;;7.22;;
32216;SDS011;67098;51.140;4.088;2023-05-10T11:44:21;12.85;;;7.57;;
32216;SDS011;67098;51.140;4.088;2023-05-10T11:46:47;11.88;;;7.68;;
32216;SDS011;67098;51.140;4.088;2023-05-10T11:49:14;17.10;;;8.40;;
32216;SDS011;67098;51.140;4.088;2023-05-10T11:51:40;13.95;;;8.43;;
32216;SDS011;67098;51.140;4.088;2023-05-10T11:54:07;14.23;;;8.80;;
32216;SDS011;67098;51.140;4.088;2023-05-10T11:56:34;14.18;;;9.02;;
32216;SDS011;67098;51.140;4.088;2023-05-10T11:59:01;15.40;;;8.05;;
32216;SDS011;67098;51.140;4.088;2023-05-10T12:01:28;12.65;;;8.60;;
32216;SDS011;67098;51.140;4.088;2023-05-10T12:03:55;17.48;;;8.80;;
32216;SDS011;67098;51.140;4.088;2023-05-10T12:06:31;14.70;;;8.82;;
32216;SDS011;67098;51.140;4.088;2023-05-10T12:09:05;13.73;;;8.90;;
32216;SDS011;67098;51.140;4.088;2023-05-10T12:11:33;13.13;;;8.10;;
32216;SDS011;67098;51.140;4.088;2023-05-10T12:14:03;14.87;;;8.73;;
32216;SDS011;67098;51.140;4.088;2023-05-10T12:16:30;11.23;;;8.20;;
32216;SDS011;67098;51.140;4.088;2023-05-10T12:18:56;13.85;;;8.80;;
32216;SDS011;67098;51.140;4.088;2023-05-10T12:21:24;12.60;;;8.10;;
32216;SDS011;67098;51.140;4.088;2023-05-10T12:23:50;13.98;;;8.68;;
32216;SDS011;67098;51.140;4.088;2023-05-10T12:26:17;13.95;;;7.97;;
32216;SDS011;67098;51.140;4.088;2023-05-10T12:28:46;15.02;;;8.27;;
32216;SDS011;67098;51.140;4.088;2023-05-10T12:31:12;16.73;;;10.63;;
32216;SDS011;67098;51.140;4.088;2023-05-10T12:33:38;17.35;;;11.45;;
32216;SDS011;67098;51.140;4.088;2023-05-10T12:36:06;17.75;;;11.57;;
32216;SDS011;67098;51.140;4.088;2023-05-10T12:38:33;16.75;;;11.15;;
32216;SDS011;67098;51.140;4.088;2023-05-10T12:41:06;20.50;;;12.25;;
32216;SDS011;67098;51.140;4.088;2023-05-10T12:43:33;21.95;;;14.13;;
32216;SDS011;67098;51.140;4.088;2023-05-10T12:46:06;20.77;;;14.00;;
32216;SDS011;67098;51.140;4.088;2023-05-10T12:48:37;22.88;;;13.45;;
32216;SDS011;67098;51.140;4.088;2023-05-10T12:51:04;22.20;;;13.38;;
32216;SDS011;67098;51.140;4.088;2023-05-10T12:53:30;19.10;;;12.88;;
32216;SDS011;67098;51.140;4.088;2023-05-10T12:55:56;18.30;;;12.80;;
32216;SDS011;67098;51.140;4.088;2023-05-10T12:58:22;23.58;;;15.50;;
32216;SDS011;67098;51.140;4.088;2023-05-10T13:00:48;22.58;;;14.43;;
32216;SDS011;67098;51.140;4.088;2023-05-10T13:03:13;21.52;;;13.82;;
32216;SDS011;67098;51.140;4.088;2023-05-10T13:05:40;22.15;;;14.80;;
32216;SDS011;67098;51.140;4.088;2023-05-10T13:08:06;19.52;;;13.50;;
32216;SDS011;67098;51.140;4.088;2023-05-10T13:10:32;24.80;;;14.55;;
32216;SDS011;67098;51.140;4.088;2023-05-10T13:12:58;18.98;;;14.10;;
32216;SDS011;67098;51.140;4.088;2023-05-10T13:15:24;23.35;;;15.20;;
32216;SDS011;67098;51.140;4.088;2023-05-10T13:17:50;23.52;;;14.50;;
32216;SDS011;67098;51.140;4.088;2023-05-10T13:20:16;24.05;;;15.02;;
32216;SDS011;67098;51.140;4.088;2023-05-10T13:22:45;20.13;;;14.00;;
32216;SDS011;67098;51.140;4.088;2023-05-10T13:25:11;20.45;;;14.20;;
32216;SDS011;67098;51.140;4.088;2023-05-10T13:27:37;20.48;;;13.80;;
32216;SDS011;67098;51.140;4.088;2023-05-10T13:30:06;23.67;;;14.85;;
32216;SDS011;67098;51.140;4.088;2023-05-10T13:32:33;19.05;;;11.27;;
32216;SDS011;67098;51.140;4.088;2023-05-10T13:34:58;18.58;;;12.07;;
32216;SDS011;67098;51.140;4.088;2023-05-10T13:37:24;24.95;;;15.30;;
32216;SDS011;67098;51.140;4.088;2023-05-10T13:39:50;24.55;;;16.17;;
32216;SDS011;67098;51.140;4.088;2023-05-10T13:42:15;23.55;;;14.68;;
32216;SDS011;67098;51.140;4.088;2023-05-10T13:44:42;22.88;;;15.18;;
32216;SDS011;67098;51.140;4.088;2023-05-10T13:47:07;23.77;;;14.45;;
32216;SDS011;67098;51.140;4.088;2023-05-10T13:49:33;27.35;;;14.48;;
32216;SDS011;67098;51.140;4.088;2023-05-10T13:51:59;21.15;;;13.90;;
32216;SDS011;67098;51.140;4.088;2023-05-10T13:54:31;24.70;;;16.25;;
32216;SDS011;67098;51.140;4.088;2023-05-10T13:57:01;24.70;;;15.95;;
32216;SDS011;67098;51.140;4.088;2023-05-10T13:59:28;25.25;;;14.55;;
32216;SDS011;67098;51.140;4.088;2023-05-10T14:01:54;23.33;;;13.93;;
32216;SDS011;67098;51.140;4.088;2023-05-10T14:04:20;24.48;;;12.63;;
32216;SDS011;67098;51.140;4.088;2023-05-10T14:06:45;22.35;;;12.60;;
32216;SDS011;67098;51.140;4.088;2023-05-10T14:09:11;21.95;;;13.07;;
32216;SDS011;67098;51.140;4.088;2023-05-10T14:11:37;28.52;;;13.65;;
32216;SDS011;67098;51.140;4.088;2023-05-10T14:14:06;22.15;;;13.43;;
32216;SDS011;67098;51.140;4.088;2023-05-10T14:16:33;22.13;;;13.35;;
32216;SDS011;67098;51.140;4.088;2023-05-10T14:18:59;27.83;;;15.43;;
32216;SDS011;67098;51.140;4.088;2023-05-10T14:21:24;26.95;;;16.15;;
32216;SDS011;67098;51.140;4.088;2023-05-10T14:23:50;30.10;;;17.42;;
32216;SDS011;67098;51.140;4.088;2023-05-10T14:26:16;29.48;;;16.23;;
32216;SDS011;67098;51.140;4.088;2023-05-10T14:28:41;26.58;;;15.82;;
32216;SDS011;67098;51.140;4.088;2023-05-10T14:31:07;24.48;;;14.90;;
32216;SDS011;67098;51.140;4.088;2023-05-10T14:33:33;24.60;;;13.88;;
32216;SDS011;67098;51.140;4.088;2023-05-10T14:35:58;23.45;;;13.13;;
32216;SDS011;67098;51.140;4.088;2023-05-10T14:38:25;19.75;;;12.90;;
32216;SDS011;67098;51.140;4.088;2023-05-10T14:40:51;20.05;;;12.73;;
32216;SDS011;67098;51.140;4.088;2023-05-10T14:43:17;25.75;;;13.13;;
32216;SDS011;67098;51.140;4.088;2023-05-10T14:45:43;23.67;;;13.52;;
32216;SDS011;67098;51.140;4.088;2023-05-10T14:48:10;21.13;;;12.40;;
32216;SDS011;67098;51.140;4.088;2023-05-10T14:50:40;19.10;;;11.60;;
32216;SDS011;67098;51.140;4.088;2023-05-10T14:53:06;21.38;;;9.93;;
32216;SDS011;67098;51.140;4.088;2023-05-10T14:55:31;14.15;;;8.52;;
32216;SDS011;67098;51.140;4.088;2023-05-10T14:57:57;14.25;;;8.25;;